AUA643D LOWW-LKPR
Flight info
| Callsign | AUA643D |
|---|---|
| Flight time | 0h 35m |
| Altitude | 22000 |
| Route | LANUX DCT VLM |
| Aircraft | E190/M-SDE3GILORVW/S |
Departure
| Time | 2026-04-24 10:49 |
|---|---|
| Airport | Vienna International Airport (LOWW) |
Arrival
| Time | 2026-04-24 11:25 |
|---|---|
| Airport | Václav Havel Airport Prague (LKPR) |
| Time | Latitude | Longitude | Altitude | Speed | Heading |
|---|---|---|---|---|---|
| 2026-04-24 10:15 | 48.11387 | 16.57248 | 608 ft | 0 kts | 206° |
| 2026-04-24 10:38 | 48.11397 | 16.57255 | 609 ft | 4 kts | 206° |
| 2026-04-24 10:38 | 48.11421 | 16.57273 | 623 ft | 4 kts | 199° |
| 2026-04-24 10:39 | 48.11446 | 16.57279 | 621 ft | 4 kts | 164° |
| 2026-04-24 10:39 | 48.11467 | 16.57260 | 618 ft | 4 kts | 123° |
| 2026-04-24 10:39 | 48.11473 | 16.57247 | 625 ft | 2 kts | 116° |
| 2026-04-24 10:43 | 48.11471 | 16.57251 | 621 ft | 1 kts | 116° |
| 2026-04-24 10:44 | 48.11464 | 16.57272 | 625 ft | 3 kts | 116° |
| 2026-04-24 10:44 | 48.11452 | 16.57311 | 621 ft | 5 kts | 116° |
| 2026-04-24 10:44 | 48.11434 | 16.57364 | 614 ft | 6 kts | 116° |
| 2026-04-24 10:44 | 48.11415 | 16.57390 | 611 ft | 2 kts | 166° |
| 2026-04-24 10:45 | 48.11389 | 16.57384 | 609 ft | 4 kts | 199° |
| 2026-04-24 10:45 | 48.11360 | 16.57365 | 609 ft | 5 kts | 204° |
| 2026-04-24 10:45 | 48.11322 | 16.57340 | 618 ft | 7 kts | 205° |
| 2026-04-24 10:45 | 48.11278 | 16.57306 | 618 ft | 8 kts | 207° |
| 2026-04-24 10:46 | 48.11258 | 16.57291 | 618 ft | 2 kts | 204° |
| 2026-04-24 10:46 | 48.11240 | 16.57279 | 621 ft | 4 kts | 204° |
| 2026-04-24 10:46 | 48.11202 | 16.57253 | 612 ft | 7 kts | 204° |
| 2026-04-24 10:46 | 48.11153 | 16.57220 | 615 ft | 9 kts | 204° |
| 2026-04-24 10:47 | 48.11099 | 16.57182 | 612 ft | 8 kts | 204° |
| 2026-04-24 10:47 | 48.11088 | 16.57175 | 612 ft | 2 kts | 204° |
| 2026-04-24 10:47 | 48.11069 | 16.57163 | 609 ft | 4 kts | 204° |
| 2026-04-24 10:47 | 48.11049 | 16.57138 | 622 ft | 4 kts | 223° |
| 2026-04-24 10:48 | 48.11049 | 16.57121 | 613 ft | 1 kts | 294° |
| 2026-04-24 10:48 | 48.11049 | 16.57120 | 613 ft | 0 kts | 294° |
| 2026-04-24 10:48 | 48.11050 | 16.57118 | 613 ft | 2 kts | 294° |
| 2026-04-24 10:48 | 48.11122 | 16.56888 | 613 ft | 58 kts | 295° |
| 2026-04-24 10:49 | 48.11391 | 16.56062 | 620 ft | 116 kts | 296° |
| 2026-04-24 10:49 | 48.11814 | 16.54763 | 690 ft | 156 kts | 296° |
| 2026-04-24 10:49 | 48.12310 | 16.53187 | 1176 ft | 175 kts | 290° |
| 2026-04-24 10:49 | 48.12337 | 16.51404 | 2207 ft | 173 kts | 261° |
| 2026-04-24 10:50 | 48.11932 | 16.49590 | 2770 ft | 191 kts | 257° |
| 2026-04-24 10:50 | 48.11733 | 16.47620 | 3394 ft | 198 kts | 275° |
| 2026-04-24 10:50 | 48.11801 | 16.45484 | 3873 ft | 217 kts | 279° |
| 2026-04-24 10:50 | 48.12007 | 16.43175 | 4431 ft | 231 kts | 282° |
| 2026-04-24 10:51 | 48.12257 | 16.40727 | 5031 ft | 243 kts | 282° |
| 2026-04-24 10:51 | 48.12516 | 16.38200 | 5727 ft | 249 kts | 283° |
| 2026-04-24 10:51 | 48.12785 | 16.35606 | 6401 ft | 255 kts | 284° |
| 2026-04-24 10:51 | 48.13070 | 16.32964 | 7039 ft | 259 kts | 285° |
| 2026-04-24 10:52 | 48.13360 | 16.30282 | 7661 ft | 263 kts | 284° |
| 2026-04-24 10:52 | 48.13644 | 16.27552 | 8267 ft | 268 kts | 284° |
| 2026-04-24 10:52 | 48.13949 | 16.24783 | 8891 ft | 270 kts | 289° |
| 2026-04-24 10:52 | 48.14781 | 16.22352 | 9536 ft | 262 kts | 315° |
| 2026-04-24 10:53 | 48.16092 | 16.20451 | 10167 ft | 266 kts | 323° |
| 2026-04-24 10:53 | 48.17593 | 16.18707 | 10461 ft | 281 kts | 327° |
| 2026-04-24 10:53 | 48.19254 | 16.17095 | 11085 ft | 286 kts | 335° |
| 2026-04-24 10:53 | 48.21040 | 16.15743 | 11843 ft | 290 kts | 336° |
| 2026-04-24 10:54 | 48.22852 | 16.14363 | 12681 ft | 294 kts | 336° |
| 2026-04-24 10:54 | 48.24707 | 16.12988 | 13568 ft | 299 kts | 337° |
| 2026-04-24 10:54 | 48.26586 | 16.11595 | 14386 ft | 304 kts | 337° |
| 2026-04-24 10:54 | 48.28475 | 16.10199 | 15198 ft | 309 kts | 337° |
| 2026-04-24 10:55 | 48.30423 | 16.08753 | 15990 ft | 314 kts | 337° |
| 2026-04-24 10:55 | 48.32392 | 16.07289 | 16774 ft | 319 kts | 337° |
| 2026-04-24 10:55 | 48.34400 | 16.05796 | 17557 ft | 324 kts | 337° |
| 2026-04-24 10:55 | 48.36436 | 16.04279 | 18335 ft | 328 kts | 337° |
| 2026-04-24 10:56 | 48.38494 | 16.02746 | 19044 ft | 332 kts | 337° |
| 2026-04-24 10:56 | 48.40578 | 16.01191 | 19761 ft | 336 kts | 337° |
| 2026-04-24 10:56 | 48.42684 | 15.99619 | 20471 ft | 339 kts | 338° |
| 2026-04-24 10:56 | 48.44805 | 15.98032 | 21163 ft | 343 kts | 337° |
| 2026-04-24 10:57 | 48.46953 | 15.96426 | 21809 ft | 348 kts | 337° |
| 2026-04-24 10:57 | 48.49109 | 15.94811 | 21963 ft | 345 kts | 337° |
| 2026-04-24 10:57 | 48.51267 | 15.93196 | 22051 ft | 348 kts | 337° |
| 2026-04-24 10:57 | 48.53441 | 15.91570 | 22089 ft | 349 kts | 338° |
| 2026-04-24 10:58 | 48.55629 | 15.89993 | 22095 ft | 349 kts | 337° |
| 2026-04-24 10:58 | 48.57753 | 15.88228 | 22085 ft | 349 kts | 335° |
| 2026-04-24 10:58 | 48.59877 | 15.86443 | 22096 ft | 349 kts | 335° |
| 2026-04-24 10:58 | 48.61990 | 15.84635 | 22088 ft | 348 kts | 334° |
| 2026-04-24 10:59 | 48.64070 | 15.82859 | 22086 ft | 348 kts | 335° |
| 2026-04-24 10:59 | 48.66178 | 15.81054 | 22084 ft | 348 kts | 335° |
| 2026-04-24 10:59 | 48.68285 | 15.79247 | 22090 ft | 348 kts | 335° |
| 2026-04-24 10:59 | 48.70388 | 15.77446 | 22090 ft | 347 kts | 334° |
| 2026-04-24 11:00 | 48.72489 | 15.75641 | 22090 ft | 347 kts | 335° |
| 2026-04-24 11:00 | 48.74591 | 15.73837 | 22087 ft | 347 kts | 334° |
| 2026-04-24 11:00 | 48.76687 | 15.72034 | 22093 ft | 347 kts | 335° |
| 2026-04-24 11:00 | 48.78785 | 15.70229 | 22084 ft | 346 kts | 335° |
| 2026-04-24 11:01 | 48.80877 | 15.68427 | 22085 ft | 346 kts | 335° |
| 2026-04-24 11:01 | 48.82974 | 15.66618 | 22095 ft | 346 kts | 335° |
| 2026-04-24 11:01 | 48.85072 | 15.64810 | 22088 ft | 346 kts | 335° |
| 2026-04-24 11:01 | 48.87173 | 15.63025 | 22084 ft | 345 kts | 335° |
| 2026-04-24 11:02 | 48.89292 | 15.61316 | 22101 ft | 344 kts | 339° |
| 2026-04-24 11:02 | 48.91482 | 15.59834 | 22097 ft | 344 kts | 340° |
| 2026-04-24 11:02 | 48.93667 | 15.58357 | 22090 ft | 344 kts | 340° |
| 2026-04-24 11:02 | 48.95859 | 15.56907 | 22089 ft | 343 kts | 340° |
| 2026-04-24 11:03 | 48.98047 | 15.55458 | 22092 ft | 343 kts | 340° |
| 2026-04-24 11:03 | 49.00237 | 15.54007 | 22098 ft | 343 kts | 340° |
| 2026-04-24 11:03 | 49.02426 | 15.52554 | 22085 ft | 343 kts | 339° |
| 2026-04-24 11:03 | 49.04617 | 15.51100 | 22096 ft | 343 kts | 340° |
| 2026-04-24 11:04 | 49.06806 | 15.49639 | 22092 ft | 344 kts | 340° |
| 2026-04-24 11:04 | 49.09000 | 15.48181 | 22079 ft | 344 kts | 340° |
| 2026-04-24 11:04 | 49.11198 | 15.46715 | 21691 ft | 345 kts | 340° |
| 2026-04-24 11:04 | 49.13406 | 15.45243 | 21220 ft | 349 kts | 340° |
| 2026-04-24 11:05 | 49.15641 | 15.43747 | 20750 ft | 352 kts | 340° |
| 2026-04-24 11:05 | 49.17878 | 15.42251 | 20291 ft | 350 kts | 340° |
| 2026-04-24 11:05 | 49.20104 | 15.40761 | 19831 ft | 347 kts | 340° |
| 2026-04-24 11:05 | 49.22311 | 15.39282 | 19393 ft | 345 kts | 340° |
| 2026-04-24 11:06 | 49.24508 | 15.37809 | 18960 ft | 344 kts | 339° |
| 2026-04-24 11:06 | 49.26668 | 15.36359 | 18541 ft | 343 kts | 339° |
| 2026-04-24 11:06 | 49.28845 | 15.34896 | 18087 ft | 341 kts | 339° |
| 2026-04-24 11:06 | 49.31037 | 15.33423 | 17615 ft | 338 kts | 339° |
| 2026-04-24 11:07 | 49.35295 | 15.30552 | 16699 ft | 331 kts | 339° |
| 2026-04-24 11:07 | 49.37394 | 15.29139 | 16253 ft | 328 kts | 339° |
| 2026-04-24 11:07 | 49.39474 | 15.27730 | 15844 ft | 325 kts | 339° |
| 2026-04-24 11:08 | 49.40844 | 15.26806 | 15561 ft | 324 kts | 339° |
| 2026-04-24 11:08 | 49.43566 | 15.24967 | 15028 ft | 321 kts | 339° |
| 2026-04-24 11:08 | 49.45629 | 15.23566 | 14612 ft | 319 kts | 339° |
| 2026-04-24 11:08 | 49.46969 | 15.22658 | 14371 ft | 317 kts | 339° |
| 2026-04-24 11:09 | 49.49636 | 15.20852 | 13846 ft | 315 kts | 338° |
| 2026-04-24 11:09 | 49.50993 | 15.19934 | 13553 ft | 314 kts | 338° |
| 2026-04-24 11:09 | 49.52979 | 15.18579 | 13132 ft | 310 kts | 338° |
| 2026-04-24 11:09 | 49.54940 | 15.17247 | 12715 ft | 307 kts | 338° |
| 2026-04-24 11:10 | 49.56866 | 15.15938 | 12313 ft | 305 kts | 338° |
| 2026-04-24 11:10 | 49.58820 | 15.14603 | 11916 ft | 303 kts | 338° |
| 2026-04-24 11:10 | 49.60713 | 15.13312 | 11530 ft | 300 kts | 338° |
| 2026-04-24 11:10 | 49.62620 | 15.12010 | 11142 ft | 286 kts | 338° |
| 2026-04-24 11:11 | 49.64365 | 15.10826 | 10772 ft | 265 kts | 338° |
| 2026-04-24 11:11 | 49.66044 | 15.09675 | 10455 ft | 264 kts | 338° |
| 2026-04-24 11:11 | 49.67717 | 15.08523 | 10135 ft | 261 kts | 337° |
| 2026-04-24 11:11 | 49.69243 | 15.06998 | 9785 ft | 262 kts | 324° |
| 2026-04-24 11:12 | 49.70613 | 15.05149 | 9446 ft | 261 kts | 320° |
| 2026-04-24 11:12 | 49.71896 | 15.03231 | 9105 ft | 260 kts | 319° |
| 2026-04-24 11:12 | 49.73139 | 15.01201 | 8780 ft | 260 kts | 314° |
| 2026-04-24 11:12 | 49.74265 | 14.99010 | 8466 ft | 260 kts | 311° |
| 2026-04-24 11:13 | 49.75372 | 14.96803 | 8111 ft | 259 kts | 311° |
| 2026-04-24 11:13 | 49.76474 | 14.94616 | 7793 ft | 256 kts | 311° |
| 2026-04-24 11:13 | 49.77557 | 14.92448 | 7459 ft | 254 kts | 311° |
| 2026-04-24 11:13 | 49.78637 | 14.90298 | 7141 ft | 252 kts | 311° |
| 2026-04-24 11:14 | 49.79698 | 14.88140 | 6823 ft | 251 kts | 310° |
| 2026-04-24 11:14 | 49.80655 | 14.85873 | 6516 ft | 254 kts | 296° |
| 2026-04-24 11:14 | 49.80861 | 14.83113 | 6216 ft | 265 kts | 271° |
| 2026-04-24 11:14 | 49.80902 | 14.80314 | 5916 ft | 256 kts | 290° |
| 2026-04-24 11:15 | 49.81692 | 14.77927 | 5590 ft | 247 kts | 308° |
| 2026-04-24 11:15 | 49.82734 | 14.75854 | 5286 ft | 242 kts | 317° |
| 2026-04-24 11:15 | 49.84151 | 14.74507 | 5035 ft | 240 kts | 339° |
| 2026-04-24 11:15 | 49.85723 | 14.73668 | 4785 ft | 238 kts | 339° |
| 2026-04-24 11:16 | 49.87180 | 14.72506 | 4482 ft | 235 kts | 323° |
| 2026-04-24 11:16 | 49.88305 | 14.70681 | 4209 ft | 234 kts | 307° |
| 2026-04-24 11:16 | 49.89266 | 14.68694 | 4139 ft | 226 kts | 310° |
| 2026-04-24 11:16 | 49.90249 | 14.66835 | 4090 ft | 219 kts | 309° |
| 2026-04-24 11:17 | 49.91137 | 14.65011 | 3958 ft | 201 kts | 307° |
| 2026-04-24 11:17 | 49.91932 | 14.63371 | 3988 ft | 180 kts | 307° |
| 2026-04-24 11:17 | 49.92589 | 14.62028 | 4027 ft | 168 kts | 309° |
| 2026-04-24 11:17 | 49.93113 | 14.60964 | 4098 ft | 154 kts | 308° |
| 2026-04-24 11:18 | 49.93560 | 14.60027 | 4058 ft | 141 kts | 308° |
| 2026-04-24 11:18 | 49.94123 | 14.58915 | 4115 ft | 134 kts | 310° |
| 2026-04-24 11:18 | 49.94678 | 14.57752 | 4142 ft | 134 kts | 309° |
| 2026-04-24 11:18 | 49.95239 | 14.56593 | 4196 ft | 139 kts | 310° |
| 2026-04-24 11:19 | 49.95826 | 14.55423 | 4229 ft | 137 kts | 308° |
| 2026-04-24 11:19 | 49.96389 | 14.54250 | 4231 ft | 136 kts | 308° |
| 2026-04-24 11:19 | 49.96950 | 14.53079 | 4140 ft | 134 kts | 310° |
| 2026-04-24 11:19 | 49.97527 | 14.51927 | 4150 ft | 135 kts | 310° |
| 2026-04-24 11:20 | 49.98095 | 14.50747 | 4189 ft | 136 kts | 308° |
| 2026-04-24 11:20 | 49.98665 | 14.49583 | 4229 ft | 135 kts | 309° |
| 2026-04-24 11:20 | 49.99233 | 14.48412 | 4218 ft | 136 kts | 309° |
| 2026-04-24 11:20 | 49.99804 | 14.47240 | 4222 ft | 137 kts | 309° |
| 2026-04-24 11:21 | 50.00376 | 14.46060 | 4112 ft | 137 kts | 309° |
| 2026-04-24 11:21 | 50.00949 | 14.44883 | 3943 ft | 136 kts | 308° |
| 2026-04-24 11:21 | 50.01513 | 14.43721 | 3725 ft | 135 kts | 308° |
| 2026-04-24 11:21 | 50.02076 | 14.42558 | 3540 ft | 135 kts | 307° |
| 2026-04-24 11:22 | 50.02643 | 14.41408 | 3350 ft | 135 kts | 305° |
| 2026-04-24 11:22 | 50.03200 | 14.40226 | 3203 ft | 135 kts | 308° |
| 2026-04-24 11:22 | 50.03772 | 14.39078 | 2984 ft | 132 kts | 306° |
| 2026-04-24 11:22 | 50.04322 | 14.37907 | 2855 ft | 136 kts | 307° |
| 2026-04-24 11:23 | 50.04900 | 14.36750 | 2657 ft | 136 kts | 306° |
| 2026-04-24 11:23 | 50.05461 | 14.35573 | 2452 ft | 133 kts | 306° |
| 2026-04-24 11:23 | 50.06011 | 14.34440 | 2213 ft | 130 kts | 307° |
| 2026-04-24 11:23 | 50.06574 | 14.33287 | 2064 ft | 138 kts | 307° |
| 2026-04-24 11:24 | 50.07135 | 14.32115 | 1911 ft | 134 kts | 307° |
| 2026-04-24 11:24 | 50.07720 | 14.30943 | 1756 ft | 141 kts | 307° |
| 2026-04-24 11:24 | 50.08301 | 14.29696 | 1518 ft | 142 kts | 303° |
| 2026-04-24 11:24 | 50.08886 | 14.28487 | 1326 ft | 138 kts | 304° |
| 2026-04-24 11:25 | 50.09457 | 14.27301 | 1212 ft | 131 kts | 304° |
| 2026-04-24 11:25 | 50.09926 | 14.26305 | 1196 ft | 83 kts | 306° |
| 2026-04-24 11:25 | 50.10123 | 14.25915 | 1188 ft | 33 kts | 308° |
| 2026-04-24 11:25 | 50.10258 | 14.25716 | 1186 ft | 23 kts | 329° |
| 2026-04-24 11:26 | 50.10378 | 14.25659 | 1183 ft | 10 kts | 355° |
| 2026-04-24 11:26 | 50.10384 | 14.25659 | 1183 ft | 0 kts | 360° |
| 2026-04-24 11:27 | 50.10387 | 14.25659 | 1182 ft | 2 kts | 360° |
| 2026-04-24 11:27 | 50.10413 | 14.25659 | 1182 ft | 6 kts | 0° |
| 2026-04-24 11:28 | 50.10467 | 14.25672 | 1178 ft | 9 kts | 18° |
| 2026-04-24 11:28 | 50.10485 | 14.25739 | 1178 ft | 8 kts | 77° |
| 2026-04-24 11:28 | 50.10501 | 14.25848 | 1175 ft | 13 kts | 78° |
| 2026-04-24 11:28 | 50.10518 | 14.25991 | 1170 ft | 14 kts | 80° |
| 2026-04-24 11:29 | 50.10523 | 14.26044 | 1172 ft | 1 kts | 81° |
| 2026-04-24 11:29 | 50.10527 | 14.26074 | 1173 ft | 5 kts | 79° |
| 2026-04-24 11:29 | 50.10535 | 14.26135 | 1172 ft | 7 kts | 78° |
| 2026-04-24 11:29 | 50.10537 | 14.26199 | 1172 ft | 3 kts | 97° |
| 2026-04-24 11:30 | 50.10542 | 14.26230 | 1172 ft | 1 kts | 52° |
| 2026-04-24 11:30 | 50.10552 | 14.26238 | 1170 ft | 2 kts | 31° |
| 2026-04-24 11:30 | 50.10568 | 14.26255 | 1171 ft | 4 kts | 34° |
| 2026-04-24 11:30 | 50.10578 | 14.26265 | 1170 ft | 1 kts | 35° |
| 2026-04-24 11:31 | 50.10585 | 14.26273 | 1171 ft | 1 kts | 34° |
| 2026-04-24 11:31 | 50.10593 | 14.26281 | 1171 ft | 1 kts | 34° |
| 2026-04-24 11:31 | 50.10594 | 14.26283 | 1171 ft | 0 kts | 34° |